createdAt,value
2018-12-09T00:01:15.704Z,2.40
2018-12-09T00:03:48.774Z,1.93
2018-12-09T00:06:21.535Z,4.03
2018-12-09T00:08:54.911Z,3.77
2018-12-09T00:11:25.916Z,1.67
2018-12-09T00:13:59.054Z,3.00
2018-12-09T00:16:32.550Z,1.40
2018-12-09T00:19:08.154Z,5.60
2018-12-09T00:21:41.706Z,1.87
2018-12-09T00:24:13.432Z,2.63
2018-12-09T00:26:44.410Z,2.57
2018-12-09T00:29:14.074Z,2.63
2018-12-09T00:31:46.924Z,1.73
2018-12-09T00:34:16.368Z,1.97
2018-12-09T00:36:49.499Z,3.00
2018-12-09T00:39:24.386Z,2.77
2018-12-09T00:41:57.511Z,1.30
2018-12-09T00:44:29.064Z,2.73
2018-12-09T00:46:59.709Z,2.83
2018-12-09T00:49:31.996Z,2.83
2018-12-09T00:52:05.391Z,3.23
2018-12-09T00:54:36.470Z,2.07
2018-12-09T00:57:10.363Z,2.73
2018-12-09T00:59:43.167Z,2.17
2018-12-09T01:02:16.553Z,1.70
2018-12-09T01:04:51.924Z,1.80
2018-12-09T01:07:21.354Z,2.80
2018-12-09T01:09:54.246Z,2.30
2018-12-09T01:12:27.134Z,2.50
2018-12-09T01:14:59.991Z,1.70
2018-12-09T01:17:33.350Z,1.87
2018-12-09T01:20:08.438Z,1.50
2018-12-09T01:22:38.971Z,1.33
2018-12-09T01:25:13.879Z,2.50
2018-12-09T01:27:46.156Z,1.60
2018-12-09T01:30:18.562Z,2.03
2018-12-09T01:32:53.399Z,2.30
2018-12-09T01:35:25.883Z,2.37
2018-12-09T01:37:57.587Z,1.47
2018-12-09T01:40:29.780Z,1.53
2018-12-09T01:43:03.541Z,1.70
2018-12-09T01:45:34.870Z,2.90
2018-12-09T01:48:07.514Z,1.00
2018-12-09T01:50:42.799Z,2.27
2018-12-09T01:53:28.086Z,1.57
2018-12-09T01:56:00.801Z,1.67
2018-12-09T01:58:31.930Z,1.67
2018-12-09T02:01:01.723Z,2.13
2018-12-09T02:03:30.967Z,1.23
2018-12-09T02:06:04.522Z,2.10
2018-12-09T02:08:39.931Z,0.67
2018-12-09T02:11:09.380Z,1.40
2018-12-09T02:13:44.760Z,1.93
2018-12-09T02:16:18.100Z,1.87
2018-12-09T02:19:02.435Z,1.33
2018-12-09T02:21:33.623Z,1.83
2018-12-09T02:24:04.885Z,2.37
2018-12-09T02:26:35.914Z,2.80
2018-12-09T02:29:07.084Z,1.27
2018-12-09T02:31:38.694Z,1.90
2018-12-09T02:34:11.515Z,2.03
2018-12-09T02:36:46.763Z,2.57
2018-12-09T02:39:21.450Z,1.90
2018-12-09T02:41:55.310Z,2.37
2018-12-09T02:44:28.436Z,1.30
2018-12-09T02:47:02.180Z,1.70
2018-12-09T02:49:35.346Z,1.83
2018-12-09T02:52:08.138Z,2.00
2018-12-09T02:54:41.744Z,0.87
2018-12-09T02:57:14.180Z,2.03
2018-12-09T02:59:49.474Z,0.90
2018-12-09T03:02:19.189Z,1.63
2018-12-09T03:04:50.066Z,1.80
2018-12-09T03:07:19.582Z,1.77
2018-12-09T03:09:50.274Z,2.07
2018-12-09T03:12:21.963Z,3.33
2018-12-09T03:14:55.226Z,2.63
2018-12-09T03:17:25.614Z,1.80
2018-12-09T03:19:58.686Z,2.53
2018-12-09T03:22:29.815Z,2.13
2018-12-09T03:25:01.915Z,2.23
2018-12-09T03:27:31.858Z,1.83
2018-12-09T03:30:05.194Z,2.47
2018-12-09T03:32:38.610Z,1.60
2018-12-09T03:35:14.277Z,2.70
2018-12-09T03:37:47.840Z,1.17
2018-12-09T03:40:20.750Z,1.40
2018-12-09T03:42:53.414Z,1.83
2018-12-09T03:45:23.013Z,1.50
2018-12-09T03:47:52.730Z,1.77
2018-12-09T03:50:25.488Z,3.07
2018-12-09T03:52:58.545Z,2.27
2018-12-09T03:55:28.594Z,3.00
2018-12-09T03:58:00.767Z,1.97
2018-12-09T04:00:33.761Z,1.83
2018-12-09T04:03:05.222Z,1.63
2018-12-09T04:05:38.801Z,1.70
2018-12-09T04:08:10.614Z,1.90
2018-12-09T04:10:44.148Z,2.37
2018-12-09T04:13:14.567Z,1.77
2018-12-09T04:15:43.823Z,2.23
2018-12-09T04:18:13.502Z,2.60
2018-12-09T04:20:47.010Z,2.60
2018-12-09T04:23:16.363Z,2.20
2018-12-09T04:25:45.426Z,2.23
2018-12-09T04:28:18.939Z,1.83
2018-12-09T04:30:51.696Z,2.23
2018-12-09T04:33:24.118Z,0.97
2018-12-09T04:35:55.214Z,2.47
2018-12-09T04:38:25.503Z,2.27
2018-12-09T04:40:55.490Z,2.07
2018-12-09T04:43:29.331Z,1.40
2018-12-09T04:45:59.679Z,1.50
2018-12-09T04:48:33.146Z,1.87
2018-12-09T04:51:02.816Z,2.33
2018-12-09T04:53:35.907Z,2.00
2018-12-09T04:56:07.229Z,1.37
2018-12-09T04:58:40.535Z,2.47
2018-12-09T05:01:11.499Z,1.40
2018-12-09T05:03:40.946Z,1.80
2018-12-09T05:06:12.111Z,1.50
2018-12-09T05:08:44.903Z,1.80
2018-12-09T05:11:15.647Z,1.93
2018-12-09T05:13:45.549Z,1.43
2018-12-09T05:16:18.679Z,1.70
2018-12-09T05:18:53.974Z,2.37
2018-12-09T05:21:23.658Z,2.40
2018-12-09T05:23:53.048Z,1.87
2018-12-09T05:26:29.042Z,1.23
2018-12-09T05:28:59.620Z,1.77
2018-12-09T05:31:30.173Z,2.13
2018-12-09T05:34:05.971Z,1.27
2018-12-09T05:36:42.127Z,1.77
2018-12-09T05:39:12.191Z,1.50
2018-12-09T05:41:43.458Z,1.77
2018-12-09T05:44:16.668Z,2.13
2018-12-09T05:46:49.610Z,1.97
2018-12-09T05:49:22.920Z,1.80
2018-12-09T05:51:54.498Z,2.17
2018-12-09T05:54:28.402Z,1.53
2018-12-09T05:57:01.672Z,1.10
2018-12-09T05:59:34.573Z,2.50
2018-12-09T06:02:16.546Z,1.80
2018-12-09T06:04:48.831Z,2.40
2018-12-09T06:07:21.528Z,2.47
2018-12-09T06:09:53.811Z,2.37
2018-12-09T06:12:26.835Z,2.00
2018-12-09T06:14:57.959Z,2.57
2018-12-09T06:17:31.218Z,2.30
2018-12-09T06:20:01.509Z,3.03
2018-12-09T06:22:31.508Z,2.23
2018-12-09T06:25:03.096Z,1.77
2018-12-09T06:27:32.924Z,0.87
2018-12-09T06:30:03.206Z,0.90
2018-12-09T06:32:33.867Z,0.60
2018-12-09T06:35:09.122Z,0.63
2018-12-09T06:37:41.714Z,0.40
2018-12-09T06:40:14.647Z,0.20
2018-12-09T06:42:47.559Z,0.60
2018-12-09T06:45:20.829Z,0.40
2018-12-09T06:47:54.561Z,0.50
2018-12-09T06:50:24.996Z,0.20
2018-12-09T06:52:56.211Z,0.40
2018-12-09T06:55:31.144Z,0.43
2018-12-09T06:58:04.232Z,0.20
2018-12-09T07:00:36.560Z,0.40
2018-12-09T07:03:09.799Z,0.20
2018-12-09T07:05:43.031Z,0.60
2018-12-09T07:08:15.932Z,0.50
2018-12-09T07:10:48.823Z,0.30
2018-12-09T07:13:21.574Z,0.60
2018-12-09T07:15:54.967Z,0.73
2018-12-09T07:18:27.547Z,0.80
2018-12-09T07:20:59.989Z,0.50
2018-12-09T07:23:33.116Z,0.30
2018-12-09T07:28:34.703Z,0.53
2018-12-09T07:31:07.897Z,1.33
2018-12-09T07:33:40.462Z,0.50
2018-12-09T07:36:15.744Z,0.47
2018-12-09T07:38:48.919Z,0.87
2018-12-09T07:41:22.815Z,0.67
2018-12-09T07:43:53.890Z,0.27
2018-12-09T07:46:25.225Z,0.60
2018-12-09T07:48:58.222Z,0.60
2018-12-09T07:51:31.421Z,0.33
2018-12-09T07:54:08.452Z,0.60
2018-12-09T07:56:40.960Z,0.63
2018-12-09T08:02:15.642Z,0.37
2018-12-09T08:04:54.428Z,0.53
2018-12-09T08:07:28.687Z,0.83
2018-12-09T08:10:04.522Z,0.70
2018-12-09T08:17:41.011Z,0.80
2018-12-09T08:20:22.457Z,0.70
2018-12-09T08:25:47.302Z,0.50
2018-12-09T08:28:22.768Z,0.60
2018-12-09T08:30:55.431Z,0.40
2018-12-09T08:33:25.699Z,0.57
2018-12-09T08:36:00.900Z,0.40
2018-12-09T08:38:37.223Z,0.13
2018-12-09T08:41:07.764Z,0.60
2018-12-09T08:43:43.780Z,0.50
2018-12-09T08:46:20.135Z,0.53
2018-12-09T08:48:55.897Z,0.67
2018-12-09T08:51:27.237Z,0.60
2018-12-09T08:54:02.842Z,0.53
2018-12-09T08:56:33.521Z,1.00
2018-12-09T08:59:07.314Z,0.80
2018-12-09T09:01:39.812Z,0.53
2018-12-09T09:04:10.619Z,0.73
2018-12-09T09:06:43.730Z,0.93
2018-12-09T09:09:27.767Z,1.07
2018-12-09T09:12:00.047Z,1.27
2018-12-09T09:14:33.095Z,1.33
2018-12-09T09:17:06.308Z,1.33
2018-12-09T09:19:45.166Z,1.37
2018-12-09T09:22:24.275Z,1.00
2018-12-09T09:24:58.354Z,1.47
2018-12-09T09:27:30.692Z,1.47
2018-12-09T09:30:05.379Z,1.80
2018-12-09T09:32:39.357Z,1.20
2018-12-09T09:35:09.266Z,0.67
2018-12-09T09:37:40.249Z,0.90
2018-12-09T09:40:12.854Z,0.80
2018-12-09T09:42:52.446Z,1.50
2018-12-09T09:45:25.235Z,0.80
2018-12-09T09:47:59.968Z,0.87
2018-12-09T09:50:36.882Z,1.43
2018-12-09T09:53:09.320Z,1.20
2018-12-09T09:55:44.279Z,1.03
2018-12-09T09:58:14.607Z,1.07
2018-12-09T10:00:45.015Z,1.20
2018-12-09T10:03:16.686Z,1.47
2018-12-09T10:05:57.684Z,1.30
2018-12-09T10:08:33.027Z,1.03
2018-12-09T10:11:10.162Z,1.40
2018-12-09T10:13:45.595Z,1.70
2018-12-09T10:16:33.257Z,1.70
2018-12-09T10:19:08.862Z,1.73
2018-12-09T10:21:42.175Z,1.33
2018-12-09T10:24:24.084Z,1.80
2018-12-09T10:26:57.321Z,1.50
2018-12-09T10:29:32.375Z,1.70
2018-12-09T10:32:09.010Z,2.83
2018-12-09T10:34:39.764Z,1.47
2018-12-09T10:37:12.477Z,1.80
2018-12-09T10:39:45.292Z,1.57
2018-12-09T10:42:14.305Z,2.03
2018-12-09T10:44:47.070Z,1.63
2018-12-09T10:47:18.060Z,1.93
2018-12-09T10:49:54.205Z,1.80
2018-12-09T10:52:31.720Z,1.57
2018-12-09T10:55:01.520Z,1.90
2018-12-09T10:57:36.291Z,1.90
2018-12-09T11:00:13.442Z,1.93
2018-12-09T11:02:46.164Z,1.83
2018-12-09T11:05:21.395Z,1.57
2018-12-09T11:07:53.959Z,2.00
2018-12-09T11:10:23.991Z,1.53
2018-12-09T11:12:56.123Z,1.90
2018-12-09T11:15:26.267Z,1.90
2018-12-09T11:17:55.336Z,1.50
2018-12-09T11:20:26.830Z,1.70
2018-12-09T11:22:59.340Z,1.43
2018-12-09T11:25:35.444Z,1.53
2018-12-09T11:28:06.973Z,1.43
2018-12-09T11:30:39.282Z,2.10
2018-12-09T11:33:12.686Z,1.43
2018-12-09T11:35:47.919Z,1.27
2018-12-09T11:38:20.158Z,1.40
2018-12-09T11:40:50.754Z,1.57
2018-12-09T11:43:26.334Z,1.20
2018-12-09T11:45:56.827Z,1.60
2018-12-09T11:48:28.957Z,1.20
2018-12-09T11:50:58.814Z,1.00
2018-12-09T11:53:31.858Z,1.20
2018-12-09T11:56:03.467Z,1.87
2018-12-09T11:58:36.164Z,1.30
2018-12-09T12:01:06.919Z,0.87
2018-12-09T12:03:36.371Z,1.20
2018-12-09T12:06:09.334Z,1.03
2018-12-09T12:08:41.431Z,0.97
2018-12-09T12:11:13.891Z,1.10
2018-12-09T12:13:47.838Z,0.80
2018-12-09T12:16:16.866Z,1.63
2018-12-09T12:18:46.821Z,1.03
2018-12-09T12:21:15.862Z,1.83
2018-12-09T12:23:48.107Z,0.93
2018-12-09T12:26:18.979Z,1.20
2018-12-09T12:28:54.932Z,1.50
2018-12-09T12:31:27.569Z,1.57
2018-12-09T12:33:57.787Z,1.30
2018-12-09T12:36:36.056Z,1.20
2018-12-09T12:39:08.806Z,1.53
2018-12-09T12:41:41.287Z,1.63
2018-12-09T12:44:12.349Z,1.37
2018-12-09T12:46:45.890Z,1.47
2018-12-09T12:49:20.611Z,1.97
2018-12-09T12:51:52.957Z,1.70
2018-12-09T12:54:23.020Z,1.27
2018-12-09T12:56:55.790Z,1.07
2018-12-09T12:59:27.782Z,1.40
2018-12-09T13:02:01.046Z,0.80
2018-12-09T13:04:33.997Z,0.90
2018-12-09T13:07:05.269Z,1.23
2018-12-09T13:09:36.471Z,1.13
2018-12-09T13:12:08.093Z,1.10
2018-12-09T13:14:40.590Z,1.63
2018-12-09T13:17:09.728Z,1.50
2018-12-09T13:19:42.732Z,1.47
2018-12-09T13:22:12.797Z,1.30
2018-12-09T13:24:43.939Z,1.43
2018-12-09T13:27:19.431Z,1.00
2018-12-09T13:29:50.280Z,1.30
2018-12-09T13:32:23.400Z,0.87
2018-12-09T13:35:01.057Z,1.00
2018-12-09T13:37:34.128Z,1.20
2018-12-09T13:40:09.671Z,1.60
2018-12-09T13:42:40.631Z,1.70
2018-12-09T13:45:12.384Z,1.50
2018-12-09T13:47:41.795Z,1.00
2018-12-09T13:50:13.022Z,1.20
2018-12-09T13:52:45.640Z,1.30
2018-12-09T13:55:21.006Z,0.80
2018-12-09T13:57:55.236Z,1.60
2018-12-09T14:00:30.688Z,0.90
2018-12-09T14:03:01.915Z,1.17
2018-12-09T14:05:36.774Z,1.40
2018-12-09T14:08:05.812Z,1.40
2018-12-09T14:10:42.382Z,1.20
2018-12-09T14:13:15.221Z,0.80
2018-12-09T14:15:44.266Z,1.30
2018-12-09T14:18:16.575Z,1.03
2018-12-09T14:20:50.169Z,1.67
2018-12-09T14:23:25.508Z,1.30
2018-12-09T14:25:58.796Z,1.17
2018-12-09T14:28:31.371Z,1.33
2018-12-09T14:31:00.481Z,1.40
2018-12-09T14:33:34.002Z,2.10
2018-12-09T14:36:07.334Z,2.77
2018-12-09T14:38:40.726Z,2.03
2018-12-09T14:41:09.996Z,1.27
2018-12-09T14:43:40.710Z,1.63
2018-12-09T14:46:09.790Z,1.53
2018-12-09T14:48:42.150Z,1.80
2018-12-09T14:51:13.084Z,1.77
2018-12-09T14:53:50.304Z,1.70
2018-12-09T14:56:25.266Z,1.73
2018-12-09T14:58:54.450Z,1.57
2018-12-09T15:01:23.602Z,1.93
2018-12-09T15:03:58.359Z,1.67
2018-12-09T15:06:27.725Z,1.73
2018-12-09T15:09:17.975Z,2.80
2018-12-09T15:11:53.288Z,2.47
2018-12-09T15:14:37.149Z,1.63
2018-12-09T15:17:12.887Z,1.73
2018-12-09T15:19:42.228Z,1.93
2018-12-09T15:22:24.393Z,2.10
2018-12-09T15:25:10.522Z,1.93
2018-12-09T15:27:45.372Z,2.37
2018-12-09T15:30:18.382Z,2.27
2018-12-09T15:32:50.599Z,1.80
2018-12-09T15:35:23.523Z,2.50
2018-12-09T15:37:52.922Z,2.27
2018-12-09T15:40:26.561Z,1.93
2018-12-09T15:42:56.551Z,2.20
2018-12-09T15:45:29.158Z,2.20
2018-12-09T15:48:02.167Z,1.83
2018-12-09T15:50:34.663Z,1.90
2018-12-09T15:53:04.080Z,2.80
2018-12-09T15:55:37.160Z,2.10
2018-12-09T15:58:07.159Z,1.40
2018-12-09T16:00:44.093Z,1.73
2018-12-09T16:03:17.105Z,2.23
2018-12-09T16:05:47.266Z,2.13
2018-12-09T16:08:20.849Z,1.83
2018-12-09T16:11:08.448Z,1.63
2018-12-09T16:13:37.611Z,1.90
2018-12-09T16:16:08.851Z,1.43
2018-12-09T16:18:41.388Z,1.60
2018-12-09T16:21:16.595Z,2.60
2018-12-09T16:23:49.611Z,1.87
2018-12-09T16:26:24.555Z,1.60
2018-12-09T16:28:57.700Z,1.47
2018-12-09T16:31:30.926Z,1.83
2018-12-09T16:34:05.702Z,2.33
2018-12-09T16:36:36.578Z,1.70
2018-12-09T16:39:07.986Z,1.50
2018-12-09T16:41:43.150Z,2.67
2018-12-09T16:44:15.260Z,1.63
2018-12-09T16:46:47.905Z,2.43
2018-12-09T16:49:16.926Z,2.63
2018-12-09T16:51:51.711Z,1.57
2018-12-09T16:54:24.227Z,1.60
2018-12-09T16:56:59.222Z,1.33
2018-12-09T16:59:31.439Z,1.60
2018-12-09T17:02:02.163Z,2.30
2018-12-09T17:04:37.424Z,2.07
2018-12-09T17:07:09.815Z,1.60
2018-12-09T17:09:44.783Z,2.13
2018-12-09T17:12:17.215Z,1.80
2018-12-09T17:14:54.212Z,2.50
2018-12-09T17:17:23.547Z,1.90
2018-12-09T17:19:54.117Z,2.10
2018-12-09T17:22:26.629Z,2.03
2018-12-09T17:25:01.707Z,2.23
2018-12-09T17:27:34.605Z,2.40
2018-12-09T17:30:08.547Z,1.93
2018-12-09T17:32:44.044Z,2.10
2018-12-09T17:35:17.662Z,2.67
2018-12-09T17:37:50.684Z,3.20
2018-12-09T17:40:24.054Z,2.47
2018-12-09T17:42:54.511Z,2.50
2018-12-09T17:45:30.497Z,3.10
2018-12-09T17:48:08.143Z,2.63
2018-12-09T17:50:43.488Z,2.83
2018-12-09T17:53:20.000Z,2.03
2018-12-09T17:56:03.952Z,2.07
2018-12-09T17:58:54.697Z,3.20
2018-12-09T18:01:38.798Z,2.13
2018-12-09T18:07:12.850Z,2.23
2018-12-09T18:09:49.877Z,1.87
2018-12-09T18:12:47.734Z,2.03
2018-12-09T18:15:18.764Z,1.77
2018-12-09T18:17:51.407Z,1.87
2018-12-09T18:20:26.780Z,2.40
2018-12-09T18:22:57.531Z,2.57
2018-12-09T18:25:30.058Z,7.50
2018-12-09T18:28:06.308Z,4.50
2018-12-09T18:30:39.727Z,3.10
2018-12-09T18:33:17.833Z,2.67
2018-12-09T18:35:48.174Z,3.12
2018-12-09T18:38:24.795Z,3.10
2018-12-09T18:40:57.581Z,4.20
2018-12-09T18:43:27.503Z,3.07
2018-12-09T18:46:02.260Z,2.17
2018-12-09T18:48:31.786Z,2.77
2018-12-09T18:51:03.500Z,2.10
2018-12-09T18:53:32.536Z,1.30
2018-12-09T18:56:05.699Z,2.97
2018-12-09T18:58:40.255Z,2.13
2018-12-09T19:01:10.842Z,2.30
2018-12-09T19:03:42.469Z,2.00
2018-12-09T19:06:17.541Z,2.30
2018-12-09T19:08:53.297Z,3.00
2018-12-09T19:11:22.779Z,1.97
2018-12-09T19:13:52.093Z,2.00
2018-12-09T19:16:28.316Z,2.93
2018-12-09T19:18:57.456Z,2.03
2018-12-09T19:21:26.512Z,2.07
2018-12-09T19:23:55.539Z,1.93
2018-12-09T19:26:27.773Z,2.10
2018-12-09T19:29:03.171Z,2.20
2018-12-09T19:31:36.127Z,1.77
2018-12-09T19:34:09.039Z,2.00
2018-12-09T19:36:38.914Z,2.07
2018-12-09T19:39:09.859Z,2.67
2018-12-09T19:41:39.867Z,2.63
2018-12-09T19:44:10.447Z,2.30
2018-12-09T19:46:40.971Z,2.17
2018-12-09T19:49:16.098Z,2.57
2018-12-09T19:51:45.140Z,2.73
2018-12-09T19:54:16.038Z,2.47
2018-12-09T19:56:52.386Z,2.10
2018-12-09T19:59:23.130Z,2.20
2018-12-09T20:01:55.842Z,2.03
2018-12-09T20:04:26.612Z,3.13
2018-12-09T20:06:59.875Z,1.30
2018-12-09T20:09:35.289Z,2.23
2018-12-09T20:12:06.886Z,2.70
2018-12-09T20:14:39.311Z,2.30
2018-12-09T20:17:10.032Z,2.10
2018-12-09T20:19:42.330Z,2.00
2018-12-09T20:22:14.997Z,1.37
2018-12-09T20:24:49.880Z,1.57
2018-12-09T20:27:32.887Z,1.25
2018-12-09T20:30:03.054Z,1.83
2018-12-09T20:32:35.267Z,2.33
2018-12-09T20:35:03.502Z,2.83
2018-12-09T20:37:36.834Z,2.10
2018-12-09T20:40:08.399Z,2.20
2018-12-09T20:42:48.111Z,2.67
2018-12-09T20:45:16.515Z,2.70
2018-12-09T20:47:47.201Z,1.40
2018-12-09T20:50:18.295Z,2.30
2018-12-09T20:52:50.272Z,2.30
2018-12-09T20:55:23.365Z,1.37
2018-12-09T20:58:11.135Z,2.17
2018-12-09T21:00:44.467Z,2.80
2018-12-09T21:03:14.830Z,2.27
2018-12-09T21:05:46.850Z,2.10
2018-12-09T21:08:17.483Z,1.80
2018-12-09T21:10:48.946Z,1.83
2018-12-09T21:13:21.884Z,2.30
2018-12-09T21:15:54.368Z,1.60
2018-12-09T21:18:26.763Z,1.20
2018-12-09T21:20:57.487Z,1.57
2018-12-09T21:23:28.060Z,1.13
2018-12-09T21:25:58.302Z,1.83
2018-12-09T21:28:30.565Z,1.10
2018-12-09T21:31:01.514Z,1.10
2018-12-09T21:33:34.654Z,0.67
2018-12-09T21:36:06.174Z,1.20
2018-12-09T21:38:37.307Z,1.50
2018-12-09T21:41:08.447Z,1.43
2018-12-09T21:43:39.578Z,1.37
2018-12-09T21:46:17.385Z,1.30
2018-12-09T21:48:46.906Z,1.77
2018-12-09T21:51:16.217Z,1.70
2018-12-09T21:53:49.367Z,1.43
2018-12-09T21:56:24.209Z,1.77
2018-12-09T21:58:57.102Z,1.20
2018-12-09T22:01:30.105Z,1.30
2018-12-09T22:04:05.623Z,1.53
2018-12-09T22:06:41.840Z,2.13
2018-12-09T22:09:16.770Z,1.20
2018-12-09T22:11:51.705Z,1.20
2018-12-09T22:14:24.234Z,2.13
2018-12-09T22:16:59.269Z,1.03
2018-12-09T22:19:31.249Z,1.57
2018-12-09T22:22:02.356Z,2.03
2018-12-09T22:24:33.544Z,1.87
2018-12-09T22:27:04.719Z,0.93
2018-12-09T22:29:37.431Z,1.87
2018-12-09T22:32:10.337Z,1.40
2018-12-09T22:34:42.557Z,2.73
2018-12-09T22:37:13.491Z,1.20
2018-12-09T22:39:49.079Z,1.50
2018-12-09T22:42:18.226Z,1.40
2018-12-09T22:44:50.698Z,1.50
2018-12-09T22:47:23.064Z,1.50
2018-12-09T22:49:55.567Z,1.27
2018-12-09T22:52:31.046Z,1.53
2018-12-09T22:55:01.888Z,1.73
2018-12-09T22:57:31.052Z,1.73
2018-12-09T23:00:00.779Z,1.60
2018-12-09T23:02:37.212Z,1.07
2018-12-09T23:05:09.089Z,1.20
2018-12-09T23:07:44.051Z,1.90
2018-12-09T23:10:19.242Z,1.37
2018-12-09T23:12:52.229Z,1.73
2018-12-09T23:15:25.015Z,1.27
2018-12-09T23:17:57.971Z,1.27
2018-12-09T23:20:33.933Z,1.50
2018-12-09T23:23:04.927Z,1.87
2018-12-09T23:25:37.982Z,1.87
2018-12-09T23:28:07.320Z,1.63
2018-12-09T23:30:41.410Z,1.10
2018-12-09T23:33:13.981Z,1.00
2018-12-09T23:35:44.815Z,2.00
2018-12-09T23:38:17.803Z,1.40
2018-12-09T23:40:50.374Z,0.80
2018-12-09T23:43:20.970Z,1.33
2018-12-09T23:45:54.311Z,0.93
2018-12-09T23:48:26.458Z,0.83
2018-12-09T23:50:58.724Z,1.10
2018-12-09T23:53:27.894Z,0.57
2018-12-09T23:55:58.358Z,1.20
2018-12-09T23:58:31.298Z,1.03
